Louise Cenac — WDI3433 — position and weather

sailwx.info

Track history (hours):
 
Tides and Currents Weather Stations Pressure Air Temp Water Temp Dewpoint Dewpoint Depression Visibility Wind Speed Wind Dir Waves Ship Positions

Louise Cenac

Owner: Cenac Marine Services, Houma, LA. More information available from US FCC via Universal Licensing System and Coast Guard Vessel Documentation Center.

Last reported at 2018-Feb-20 07:30 UTC. Time now 2018-Feb-20 07:45 UTC.
Position N 29°28' W 094°39'.

Length 22 m; draft 3.3 m.

Type: Tug. MMSI: 367688280.

Date/timePositionNaut miles runAvg speedWind from/ knotsBaromVisibWave heightAir tempDewpointWater temp
2018-Feb-20 07:30N 29°28' W 094°39'0 0.0
2018-Feb-20 07:00N 29°28' W 094°39'0 0.0
2018-Feb-20 06:30N 29°28' W 094°39'0 0.0
2018-Feb-20 03:44N 29°28' W 094°39'10 1.9
2018-Feb-19 22:20N 29°32' W 094°29'0 0.0
2018-Feb-19 21:59N 29°32' W 094°29'2 0.9
2018-Feb-19 19:49N 29°34' W 094°28'0 0.0
2018-Feb-19 19:29N 29°34' W 094°28'0 0.5
2018-Feb-19 18:58N 29°34' W 094°28'1 1.9
2018-Feb-19 18:21N 29°34' W 094°26'0 0.0
2018-Feb-19 18:01N 29°34' W 094°26'0 0.0
2018-Feb-19 17:27N 29°34' W 094°26'0 0.9
2018-Feb-19 16:58N 29°34' W 094°26'1 2.0
2018-Feb-19 16:30N 29°35' W 094°25'0 0.0
2018-Feb-19 16:00N 29°35' W 094°25'0 0.7
2018-Feb-19 15:30N 29°35' W 094°25'2 3.2
2018-Feb-19 14:59N 29°36' W 094°23'2 3.0
2018-Feb-19 14:28N 29°36' W 094°22'1 1.6
2018-Feb-19 13:59N 29°37' W 094°21'2 4.1
2018-Feb-19 13:26N 29°38' W 094°19'2 5.4
2018-Feb-19 13:00N 29°39' W 094°16'3 5.6
2018-Feb-19 12:30N 29°40' W 094°13'3 5.0
2018-Feb-19 12:01N 29°41' W 094°11'2 3.7
2018-Feb-19 11:31N 29°42' W 094°09'2 3.4
2018-Feb-19 11:01N 29°43' W 094°07'1 1.8
2018-Feb-19 10:29N 29°44' W 094°06'0 0.0
2018-Feb-19 10:00N 29°44' W 094°06'0 0.0
2018-Feb-19 09:30N 29°44' W 094°06'0 0.0
2018-Feb-19 09:01N 29°44' W 094°06'0 0.0
2018-Feb-19 08:31N 29°44' W 094°06'0 0.0
2018-Feb-19 08:00N 29°44' W 094°06'0 0.0
2018-Feb-19 07:30N 29°44' W 094°06'0 0.0
2018-Feb-19 07:00N 29°44' W 094°06'0 0.0
2018-Feb-19 06:28N 29°44' W 094°06'0 0.0
2018-Feb-19 06:01N 29°44' W 094°06'0 0.0
2018-Feb-19 05:30N 29°44' W 094°06'0 0.0
2018-Feb-19 05:00N 29°44' W 094°06'0 0.0
2018-Feb-19 04:30N 29°44' W 094°06'0 0.0
2018-Feb-19 04:00N 29°44' W 094°06'0 0.0
2018-Feb-19 03:30N 29°44' W 094°06'0 0.0
2018-Feb-19 03:01N 29°44' W 094°06'0 0.0
2018-Feb-19 02:31N 29°44' W 094°06'0 0.0
2018-Feb-19 02:00N 29°44' W 094°06'0 0.0
2018-Feb-19 01:31N 29°44' W 094°06'0 0.0
2018-Feb-19 01:00N 29°44' W 094°06'0 0.0
2018-Feb-19 00:29N 29°44' W 094°06'0 0.0
2018-Feb-18 23:58N 29°44' W 094°06'0 0.1
2018-Feb-18 23:31N 29°44' W 094°06'2 4.6
2018-Feb-18 23:01N 29°45' W 094°04'3 6.1
2018-Feb-18 22:31N 29°47' W 094°01'3 5.4
2018-Feb-18 22:00N 29°49' W 093°59'2 4.5
2018-Feb-18 21:31N 29°50' W 093°57'3 6.5
2018-Feb-18 21:01N 29°53' W 093°55'4 7.9
2018-Feb-18 20:31N 29°56' W 093°52'3 6.1
2018-Feb-18 20:01N 29°59' W 093°50'2 3.7
2018-Feb-18 19:31N 29°59' W 093°48'3 6.1
2018-Feb-18 19:00N 30°01' W 093°45'2 4.5
2018-Feb-18 18:31N 30°03' W 093°44'0 0.0
2018-Feb-18 18:00N 30°03' W 093°44'0 0.0
2018-Feb-18 17:30N 30°03' W 093°44'0 0.0
2018-Feb-18 17:01N 30°03' W 093°44'0 0.0
2018-Feb-18 16:30N 30°03' W 093°44'0 0.0
2018-Feb-18 16:00N 30°03' W 093°44'0 0.0
2018-Feb-18 15:30N 30°03' W 093°44'0 0.0
2018-Feb-18 15:01N 30°03' W 093°44'0 0.0
2018-Feb-18 14:30N 30°03' W 093°44'0 0.0
2018-Feb-18 14:00N 30°03' W 093°44'0 0.0
2018-Feb-18 13:30N 30°03' W 093°44'0 0.0
2018-Feb-18 13:00N 30°03' W 093°44'0 0.0
2018-Feb-18 12:30N 30°03' W 093°44'0 0.0
2018-Feb-18 12:00N 30°03' W 093°44'0 0.0
2018-Feb-18 11:30N 30°03' W 093°44'0 0.0
2018-Feb-18 11:00N 30°03' W 093°44'0 0.0
2018-Feb-18 10:30N 30°03' W 093°44'0 0.0
2018-Feb-18 10:00N 30°03' W 093°44'0 0.0
2018-Feb-18 09:30N 30°03' W 093°44'0 0.0
2018-Feb-18 09:00N 30°03' W 093°44'0 0.0
2018-Feb-18 08:30N 30°03' W 093°44'0 0.0
2018-Feb-18 08:01N 30°03' W 093°44'0 0.0
2018-Feb-18 07:30N 30°03' W 093°44'0 0.0
2018-Feb-18 07:01N 30°03' W 093°44'0 0.0
2018-Feb-18 06:31N 30°03' W 093°44'0 0.0
2018-Feb-18 06:01N 30°03' W 093°44'0 0.0
2018-Feb-18 05:30N 30°03' W 093°44'0 0.0
2018-Feb-18 05:00N 30°03' W 093°44'0 0.0
2018-Feb-18 04:30N 30°03' W 093°44'0 0.0
2018-Feb-18 04:01N 30°03' W 093°44'0 0.0
2018-Feb-18 03:31N 30°03' W 093°44'0 0.5
2018-Feb-18 03:01N 30°03' W 093°44'3 4.9
2018-Feb-18 02:30N 30°04' W 093°41'3 5.5
2018-Feb-18 02:00N 30°04' W 093°38'3 5.2
2018-Feb-18 01:31N 30°04' W 093°35'2 5.0
2018-Feb-18 01:01N 30°04' W 093°32'3 5.2
2018-Feb-18 00:31N 30°04' W 093°29'2 4.9
2018-Feb-18 00:00N 30°04' W 093°26'3 5.1
2018-Feb-17 23:30N 30°04' W 093°23'2 3.9
2018-Feb-17 23:00N 30°04' W 093°21'2 3.7
2018-Feb-17 22:31N 30°05' W 093°20'1 2.6
2018-Feb-17 22:00N 30°06' W 093°18'2 3.8
2018-Feb-17 21:30N 30°05' W 093°17'3 5.0
2018-Feb-17 21:01N 30°02' W 093°15'1 1.1
2018-Feb-17 20:31N 30°02' W 093°15'1 1.7
2018-Feb-17 20:00N 30°01' W 093°14'2 4.8
2018-Feb-17 19:31N 29°59' W 093°13'3 5.5
2018-Feb-17 19:01N 29°57' W 093°11'2 4.9
2018-Feb-17 18:30N 29°56' W 093°08'3 5.2
2018-Feb-17 17:59N 29°56' W 093°05'10 0.7
2018-Feb-17 03:51N 29°57' W 092°54'  
2018-Feb-13 19:32N 29°56' W 093°02'0 6.9
2018-Feb-13 19:31N 29°56' W 093°02'3 6.3
2018-Feb-13 19:00N 29°56' W 093°05'3 6.7
2018-Feb-13 18:31N 29°56' W 093°09'3 6.6
2018-Feb-13 18:00N 29°58' W 093°12'3 6.3
2018-Feb-13 17:30N 30°01' W 093°14'1 2.3
2018-Feb-13 17:01N 30°02' W 093°15'0 0.9
2018-Feb-13 16:30N 30°02' W 093°15'3 5.9
2018-Feb-13 15:59N 30°05' W 093°17'2 4.5
2018-Feb-13 15:31N 30°06' W 093°19'0 0.0
2018-Feb-13 15:00N 30°06' W 093°19'0 0.0
2018-Feb-13 14:30N 30°06' W 093°19'0 0.2
2018-Feb-13 14:01N 30°06' W 093°19'2 4.1
2018-Feb-13 13:31N 30°05' W 093°20'2 3.6
2018-Feb-13 13:00N 30°04' W 093°22'2 3.9
2018-Feb-13 12:30N 30°04' W 093°24'3 5.3
2018-Feb-13 12:01N 30°04' W 093°28'3 5.9
2018-Feb-13 11:29N 30°04' W 093°31'3 5.9
2018-Feb-13 10:57N 30°04' W 093°35'3 6.0
2018-Feb-13 10:31N 30°04' W 093°38'3 6.3
2018-Feb-13 09:59N 30°03' W 093°42'3 6.0
2018-Feb-13 09:30N 30°02' W 093°44'4 7.2
2018-Feb-13 09:01N 29°59' W 093°47'2 4.9
2018-Feb-13 08:30N 29°59' W 093°50'3 6.2
2018-Feb-13 08:00N 29°56' W 093°52'4 8.5
2018-Feb-13 07:31N 29°53' W 093°55'4 7.5
2018-Feb-13 07:00N 29°50' W 093°57'2 3.6
2018-Feb-13 06:31N 29°49' W 093°59'2 4.7
2018-Feb-13 06:00N 29°47' W 094°01'3 5.9
2018-Feb-13 05:31N 29°45' W 094°04'3 6.0
2018-Feb-13 05:01N 29°43' W 094°07'3 5.9
2018-Feb-13 04:30N 29°42' W 094°09'3 5.3
2018-Feb-13 04:00N 29°41' W 094°12'2 4.9
2018-Feb-13 03:30N 29°40' W 094°15'35 0.8
2018-Feb-11 07:14N 29°32' W 094°54'2 8.3
2018-Feb-11 07:00N 29°34' W 094°55'4 8.2
2018-Feb-11 06:31N 29°37' W 094°58'4 8.7
2018-Feb-11 06:00N 29°41' W 094°59'  
Track history (hours):
 
Tides and Currents Weather Stations Pressure Air Temp Water Temp Dewpoint Dewpoint Depression Visibility Wind Speed Wind Dir Waves Ship Positions

Louise Cenac

Owner: Cenac Marine Services, Houma, LA. More information available from US FCC via Universal Licensing System and Coast Guard Vessel Documentation Center.

Last reported at 2018-Feb-20 07:30 UTC. Time now 2018-Feb-20 07:45 UTC.
Position N 29°28' W 094°39'.

Length 22 m; draft 3.3 m.

Type: Tug. MMSI: 367688280.

Date/timePositionNaut miles runAvg speedWind from/ knotsBaromVisibWave heightAir tempDewpointWater temp
2018-Feb-20 07:30N 29°28' W 094°39'0 0.0
2018-Feb-20 07:00N 29°28' W 094°39'0 0.0
2018-Feb-20 06:30N 29°28' W 094°39'0 0.0
2018-Feb-20 03:44N 29°28' W 094°39'10 1.9
2018-Feb-19 22:20N 29°32' W 094°29'0 0.0
2018-Feb-19 21:59N 29°32' W 094°29'2 0.9
2018-Feb-19 19:49N 29°34' W 094°28'0 0.0
2018-Feb-19 19:29N 29°34' W 094°28'0 0.5
2018-Feb-19 18:58N 29°34' W 094°28'1 1.9
2018-Feb-19 18:21N 29°34' W 094°26'0 0.0
2018-Feb-19 18:01N 29°34' W 094°26'0 0.0
2018-Feb-19 17:27N 29°34' W 094°26'0 0.9
2018-Feb-19 16:58N 29°34' W 094°26'1 2.0
2018-Feb-19 16:30N 29°35' W 094°25'0 0.0
2018-Feb-19 16:00N 29°35' W 094°25'0 0.7
2018-Feb-19 15:30N 29°35' W 094°25'2 3.2
2018-Feb-19 14:59N 29°36' W 094°23'2 3.0
2018-Feb-19 14:28N 29°36' W 094°22'1 1.6
2018-Feb-19 13:59N 29°37' W 094°21'2 4.1
2018-Feb-19 13:26N 29°38' W 094°19'2 5.4
2018-Feb-19 13:00N 29°39' W 094°16'3 5.6
2018-Feb-19 12:30N 29°40' W 094°13'3 5.0
2018-Feb-19 12:01N 29°41' W 094°11'2 3.7
2018-Feb-19 11:31N 29°42' W 094°09'2 3.4
2018-Feb-19 11:01N 29°43' W 094°07'1 1.8
2018-Feb-19 10:29N 29°44' W 094°06'0 0.0
2018-Feb-19 10:00N 29°44' W 094°06'0 0.0
2018-Feb-19 09:30N 29°44' W 094°06'0 0.0
2018-Feb-19 09:01N 29°44' W 094°06'0 0.0
2018-Feb-19 08:31N 29°44' W 094°06'0 0.0
2018-Feb-19 08:00N 29°44' W 094°06'0 0.0
2018-Feb-19 07:30N 29°44' W 094°06'0 0.0
2018-Feb-19 07:00N 29°44' W 094°06'0 0.0
2018-Feb-19 06:28N 29°44' W 094°06'0 0.0
2018-Feb-19 06:01N 29°44' W 094°06'0 0.0
2018-Feb-19 05:30N 29°44' W 094°06'0 0.0
2018-Feb-19 05:00N 29°44' W 094°06'0 0.0
2018-Feb-19 04:30N 29°44' W 094°06'0 0.0
2018-Feb-19 04:00N 29°44' W 094°06'0 0.0
2018-Feb-19 03:30N 29°44' W 094°06'0 0.0
2018-Feb-19 03:01N 29°44' W 094°06'0 0.0
2018-Feb-19 02:31N 29°44' W 094°06'0 0.0
2018-Feb-19 02:00N 29°44' W 094°06'0 0.0
2018-Feb-19 01:31N 29°44' W 094°06'0 0.0
2018-Feb-19 01:00N 29°44' W 094°06'0 0.0
2018-Feb-19 00:29N 29°44' W 094°06'0 0.0
2018-Feb-18 23:58N 29°44' W 094°06'0 0.1
2018-Feb-18 23:31N 29°44' W 094°06'2 4.6
2018-Feb-18 23:01N 29°45' W 094°04'3 6.1
2018-Feb-18 22:31N 29°47' W 094°01'3 5.4
2018-Feb-18 22:00N 29°49' W 093°59'2 4.5
2018-Feb-18 21:31N 29°50' W 093°57'3 6.5
2018-Feb-18 21:01N 29°53' W 093°55'4 7.9
2018-Feb-18 20:31N 29°56' W 093°52'3 6.1
2018-Feb-18 20:01N 29°59' W 093°50'2 3.7
2018-Feb-18 19:31N 29°59' W 093°48'3 6.1
2018-Feb-18 19:00N 30°01' W 093°45'2 4.5
2018-Feb-18 18:31N 30°03' W 093°44'0 0.0
2018-Feb-18 18:00N 30°03' W 093°44'0 0.0
2018-Feb-18 17:30N 30°03' W 093°44'0 0.0
2018-Feb-18 17:01N 30°03' W 093°44'0 0.0
2018-Feb-18 16:30N 30°03' W 093°44'0 0.0
2018-Feb-18 16:00N 30°03' W 093°44'0 0.0
2018-Feb-18 15:30N 30°03' W 093°44'0 0.0
2018-Feb-18 15:01N 30°03' W 093°44'0 0.0
2018-Feb-18 14:30N 30°03' W 093°44'0 0.0
2018-Feb-18 14:00N 30°03' W 093°44'0 0.0
2018-Feb-18 13:30N 30°03' W 093°44'0 0.0
2018-Feb-18 13:00N 30°03' W 093°44'0 0.0
2018-Feb-18 12:30N 30°03' W 093°44'0 0.0
2018-Feb-18 12:00N 30°03' W 093°44'0 0.0
2018-Feb-18 11:30N 30°03' W 093°44'0 0.0
2018-Feb-18 11:00N 30°03' W 093°44'0 0.0
2018-Feb-18 10:30N 30°03' W 093°44'0 0.0
2018-Feb-18 10:00N 30°03' W 093°44'0 0.0
2018-Feb-18 09:30N 30°03' W 093°44'0 0.0
2018-Feb-18 09:00N 30°03' W 093°44'0 0.0
2018-Feb-18 08:30N 30°03' W 093°44'0 0.0
2018-Feb-18 08:01N 30°03' W 093°44'0 0.0
2018-Feb-18 07:30N 30°03' W 093°44'0 0.0
2018-Feb-18 07:01N 30°03' W 093°44'0 0.0
2018-Feb-18 06:31N 30°03' W 093°44'0 0.0
2018-Feb-18 06:01N 30°03' W 093°44'0 0.0
2018-Feb-18 05:30N 30°03' W 093°44'0 0.0
2018-Feb-18 05:00N 30°03' W 093°44'0 0.0
2018-Feb-18 04:30N 30°03' W 093°44'0 0.0
2018-Feb-18 04:01N 30°03' W 093°44'0 0.0
2018-Feb-18 03:31N 30°03' W 093°44'0 0.5
2018-Feb-18 03:01N 30°03' W 093°44'3 4.9
2018-Feb-18 02:30N 30°04' W 093°41'3 5.5
2018-Feb-18 02:00N 30°04' W 093°38'3 5.2
2018-Feb-18 01:31N 30°04' W 093°35'2 5.0
2018-Feb-18 01:01N 30°04' W 093°32'3 5.2
2018-Feb-18 00:31N 30°04' W 093°29'2 4.9
2018-Feb-18 00:00N 30°04' W 093°26'3 5.1
2018-Feb-17 23:30N 30°04' W 093°23'2 3.9
2018-Feb-17 23:00N 30°04' W 093°21'2 3.7
2018-Feb-17 22:31N 30°05' W 093°20'1 2.6
2018-Feb-17 22:00N 30°06' W 093°18'2 3.8
2018-Feb-17 21:30N 30°05' W 093°17'3 5.0
2018-Feb-17 21:01N 30°02' W 093°15'1 1.1
2018-Feb-17 20:31N 30°02' W 093°15'1 1.7
2018-Feb-17 20:00N 30°01' W 093°14'2 4.8
2018-Feb-17 19:31N 29°59' W 093°13'3 5.5
2018-Feb-17 19:01N 29°57' W 093°11'2 4.9
2018-Feb-17 18:30N 29°56' W 093°08'3 5.2
2018-Feb-17 17:59N 29°56' W 093°05'10 0.7
2018-Feb-17 03:51N 29°57' W 092°54'  
2018-Feb-13 19:32N 29°56' W 093°02'0 6.9
2018-Feb-13 19:31N 29°56' W 093°02'3 6.3
2018-Feb-13 19:00N 29°56' W 093°05'3 6.7
2018-Feb-13 18:31N 29°56' W 093°09'3 6.6
2018-Feb-13 18:00N 29°58' W 093°12'3 6.3
2018-Feb-13 17:30N 30°01' W 093°14'1 2.3
2018-Feb-13 17:01N 30°02' W 093°15'0 0.9
2018-Feb-13 16:30N 30°02' W 093°15'3 5.9
2018-Feb-13 15:59N 30°05' W 093°17'2 4.5
2018-Feb-13 15:31N 30°06' W 093°19'0 0.0
2018-Feb-13 15:00N 30°06' W 093°19'0 0.0
2018-Feb-13 14:30N 30°06' W 093°19'0 0.2
2018-Feb-13 14:01N 30°06' W 093°19'2 4.1
2018-Feb-13 13:31N 30°05' W 093°20'2 3.6
2018-Feb-13 13:00N 30°04' W 093°22'2 3.9
2018-Feb-13 12:30N 30°04' W 093°24'3 5.3
2018-Feb-13 12:01N 30°04' W 093°28'3 5.9
2018-Feb-13 11:29N 30°04' W 093°31'3 5.9
2018-Feb-13 10:57N 30°04' W 093°35'3 6.0
2018-Feb-13 10:31N 30°04' W 093°38'3 6.3
2018-Feb-13 09:59N 30°03' W 093°42'3 6.0
2018-Feb-13 09:30N 30°02' W 093°44'4 7.2
2018-Feb-13 09:01N 29°59' W 093°47'2 4.9
2018-Feb-13 08:30N 29°59' W 093°50'3 6.2
2018-Feb-13 08:00N 29°56' W 093°52'4 8.5
2018-Feb-13 07:31N 29°53' W 093°55'4 7.5
2018-Feb-13 07:00N 29°50' W 093°57'2 3.6
2018-Feb-13 06:31N 29°49' W 093°59'2 4.7
2018-Feb-13 06:00N 29°47' W 094°01'3 5.9
2018-Feb-13 05:31N 29°45' W 094°04'3 6.0
2018-Feb-13 05:01N 29°43' W 094°07'3 5.9
2018-Feb-13 04:30N 29°42' W 094°09'3 5.3
2018-Feb-13 04:00N 29°41' W 094°12'2 4.9
2018-Feb-13 03:30N 29°40' W 094°15'35 0.8
2018-Feb-11 07:14N 29°32' W 094°54'2 8.3
2018-Feb-11 07:00N 29°34' W 094°55'4 8.2
2018-Feb-11 06:31N 29°37' W 094°58'4 8.7
2018-Feb-11 06:00N 29°41' W 094°59'  

Dump ship's entire track history